createdAt,value
2018-11-05T00:01:13.092Z,16.67
2018-11-05T00:03:41.017Z,17.55
2018-11-05T00:06:08.956Z,17.10
2018-11-05T00:08:36.925Z,17.87
2018-11-05T00:11:05.381Z,19.02
2018-11-05T00:13:33.307Z,19.07
2018-11-05T00:16:01.242Z,18.23
2018-11-05T00:18:29.178Z,20.02
2018-11-05T00:20:57.121Z,17.90
2018-11-05T00:23:25.054Z,19.37
2018-11-05T00:25:53.003Z,18.35
2018-11-05T00:28:20.940Z,18.75
2018-11-05T00:30:51.138Z,19.62
2018-11-05T00:33:19.068Z,18.45
2018-11-05T00:35:46.993Z,17.77
2018-11-05T00:38:14.916Z,18.07
2018-11-05T00:40:42.838Z,17.07
2018-11-05T00:43:10.828Z,17.50
2018-11-05T00:45:38.778Z,16.60
2018-11-05T00:48:06.682Z,16.25
2018-11-05T00:50:34.608Z,15.50
2018-11-05T00:53:02.574Z,15.78
2018-11-05T00:55:32.535Z,15.32
2018-11-05T00:58:00.478Z,15.32
2018-11-05T01:00:28.427Z,16.10
2018-11-05T01:02:56.361Z,16.70
2018-11-05T01:05:24.298Z,16.17
2018-11-05T01:07:52.275Z,17.00
2018-11-05T01:10:20.212Z,15.33
2018-11-05T01:12:48.123Z,16.90
2018-11-05T01:15:18.238Z,17.55
2018-11-05T01:17:46.176Z,18.32
2018-11-05T01:20:15.053Z,16.62
2018-11-05T01:22:42.983Z,14.87
2018-11-05T01:25:11.207Z,14.83
2018-11-05T01:27:39.137Z,14.77
2018-11-05T01:30:10.927Z,16.48
2018-11-05T01:32:38.868Z,15.35
2018-11-05T01:35:07.673Z,15.95
2018-11-05T01:37:35.614Z,15.70
2018-11-05T01:40:03.692Z,15.27
2018-11-05T01:42:31.655Z,13.93
2018-11-05T01:44:59.601Z,14.90
2018-11-05T01:47:27.546Z,14.10
2018-11-05T01:49:55.511Z,14.10
2018-11-05T01:52:23.488Z,14.83
2018-11-05T01:54:51.426Z,13.85
2018-11-05T01:57:19.433Z,14.70
2018-11-05T01:59:47.365Z,14.65
2018-11-05T02:02:17.598Z,11.43
2018-11-05T02:04:45.542Z,11.73
2018-11-05T02:07:13.493Z,17.27
2018-11-05T02:09:41.451Z,17.80
2018-11-05T02:12:09.411Z,18.10
2018-11-05T02:14:37.359Z,17.37
2018-11-05T02:17:05.370Z,15.23
2018-11-05T02:19:33.310Z,15.10
2018-11-05T02:22:01.317Z,16.60
2018-11-05T02:24:29.261Z,15.32
2018-11-05T02:26:57.222Z,15.20
2018-11-05T02:29:25.161Z,16.75
2018-11-05T02:31:53.107Z,16.37
2018-11-05T02:34:21.048Z,16.75
2018-11-05T02:36:49.006Z,16.23
2018-11-05T02:39:16.942Z,15.58
2018-11-05T02:41:44.892Z,16.50
2018-11-05T02:44:12.830Z,15.73
2018-11-05T02:46:40.769Z,14.60
2018-11-05T02:49:08.723Z,16.55
2018-11-05T02:51:36.670Z,16.80
2018-11-05T02:54:04.755Z,16.20
2018-11-05T02:56:32.709Z,14.35
2018-11-05T02:59:00.667Z,15.50
2018-11-05T03:01:30.802Z,15.32
2018-11-05T03:03:58.739Z,17.30
2018-11-05T03:06:26.827Z,16.87
2018-11-05T03:08:54.865Z,13.95
2018-11-05T03:11:22.786Z,14.30
2018-11-05T03:13:50.773Z,17.05
2018-11-05T03:16:20.991Z,17.87
2018-11-05T03:18:48.925Z,16.95
2018-11-05T03:21:16.861Z,20.30
2018-11-05T03:23:44.854Z,17.67
2018-11-05T03:26:12.756Z,14.03
2018-11-05T03:28:40.694Z,15.88
2018-11-05T03:31:08.633Z,16.42
2018-11-05T03:33:36.586Z,16.70
2018-11-05T03:36:05.236Z,21.60
2018-11-05T03:38:33.173Z,17.70
2018-11-05T03:41:03.190Z,18.62
2018-11-05T03:43:33.300Z,15.60
2018-11-05T03:46:07.862Z,14.10
2018-11-05T03:48:35.808Z,14.80
2018-11-05T03:51:03.746Z,15.60
2018-11-05T03:53:31.698Z,17.10
2018-11-05T03:55:59.660Z,14.33
2018-11-05T03:58:29.730Z,12.13
2018-11-05T04:00:57.677Z,11.47
2018-11-05T04:03:25.697Z,15.53
2018-11-05T04:05:53.557Z,18.10
2018-11-05T04:08:21.499Z,15.20
2018-11-05T04:10:49.417Z,15.28
2018-11-05T04:13:17.346Z,11.33
2018-11-05T04:15:45.333Z,10.30
2018-11-05T04:18:15.506Z,9.97
2018-11-05T04:20:43.434Z,10.30
2018-11-05T04:23:11.418Z,10.47
2018-11-05T04:25:39.339Z,10.97
2018-11-05T04:28:07.264Z,9.87
2018-11-05T04:30:41.898Z,10.83
2018-11-05T04:33:09.848Z,11.60
2018-11-05T04:35:37.779Z,12.17
2018-11-05T04:38:05.706Z,12.50
2018-11-05T04:40:33.635Z,15.50
2018-11-05T04:43:01.571Z,15.10
2018-11-05T04:45:29.518Z,12.23
2018-11-05T04:47:57.441Z,17.65
2018-11-05T04:53:00.021Z,14.30
2018-11-05T04:55:27.941Z,15.23
2018-11-05T04:57:55.882Z,15.53
2018-11-05T05:00:23.814Z,18.37
2018-11-05T05:02:51.751Z,19.60
2018-11-05T05:05:19.691Z,18.77
2018-11-05T05:07:47.615Z,16.40
2018-11-05T05:10:15.561Z,14.78
2018-11-05T05:12:43.967Z,13.53
2018-11-05T05:15:12.125Z,14.40
2018-11-05T05:17:40.406Z,12.60
2018-11-05T05:20:12.591Z,10.45
2018-11-05T05:22:40.618Z,9.80
2018-11-05T05:25:08.454Z,9.75
2018-11-05T05:27:36.373Z,9.90
2018-11-05T05:30:05.514Z,10.53
2018-11-05T05:32:33.463Z,9.75
2018-11-05T05:35:05.918Z,9.80
2018-11-05T05:37:33.866Z,8.80
2018-11-05T05:40:01.791Z,8.30
2018-11-05T05:42:29.742Z,8.38
2018-11-05T05:44:57.678Z,7.58
2018-11-05T05:47:27.869Z,6.97
2018-11-05T05:49:55.824Z,7.58
2018-11-05T05:52:25.915Z,8.23
2018-11-05T05:54:53.849Z,8.30
2018-11-05T05:57:24.046Z,7.92
2018-11-05T05:59:52.028Z,12.53
2018-11-05T06:02:19.949Z,16.25
2018-11-05T06:04:47.921Z,12.40
2018-11-05T06:07:15.888Z,11.20
2018-11-05T06:09:43.806Z,14.80
2018-11-05T06:12:11.738Z,10.53
2018-11-05T06:14:41.957Z,10.20
2018-11-05T06:17:09.905Z,13.30
2018-11-05T06:19:37.883Z,13.13
2018-11-05T06:22:05.861Z,15.00
2018-11-05T06:24:35.913Z,15.50
2018-11-05T06:27:03.870Z,14.63
2018-11-05T06:29:31.809Z,13.00
2018-11-05T06:31:59.734Z,12.60
2018-11-05T06:34:27.670Z,11.00
2018-11-05T06:36:55.607Z,10.65
2018-11-05T06:39:23.549Z,11.57
2018-11-05T06:41:51.615Z,14.20
2018-11-05T06:44:21.687Z,14.20
2018-11-05T06:46:49.636Z,15.23
2018-11-05T06:49:17.567Z,13.75
2018-11-05T06:51:45.522Z,12.25
2018-11-05T06:54:14.113Z,11.60
2018-11-05T06:56:42.098Z,11.20
2018-11-05T06:59:12.259Z,11.50
2018-11-05T07:01:40.198Z,11.40
2018-11-05T07:04:08.134Z,11.30
2018-11-05T07:06:36.074Z,10.95
2018-11-05T07:09:06.878Z,11.65
2018-11-05T07:11:34.930Z,11.80
2018-11-05T07:14:02.742Z,11.33
2018-11-05T07:16:37.745Z,11.35
2018-11-05T07:19:08.209Z,11.78
2018-11-05T07:21:35.898Z,10.82
2018-11-05T07:24:03.834Z,11.83
2018-11-05T07:26:36.348Z,11.40
2018-11-05T07:29:04.410Z,12.25
2018-11-05T07:31:33.377Z,12.43
2018-11-05T07:34:01.774Z,11.25
2018-11-05T07:36:31.851Z,12.13
2018-11-05T07:39:02.164Z,12.25
2018-11-05T07:41:30.241Z,12.57
2018-11-05T07:43:58.225Z,12.78
2018-11-05T07:46:26.271Z,12.60
2018-11-05T07:48:54.203Z,11.90
2018-11-05T07:51:22.235Z,10.30
2018-11-05T07:53:50.537Z,9.18
2018-11-05T07:56:18.558Z,9.40
2018-11-05T07:58:46.442Z,9.53
2018-11-05T08:01:15.343Z,10.00
2018-11-05T08:03:43.454Z,9.35
2018-11-05T08:06:13.664Z,10.35
2018-11-05T08:08:41.705Z,9.88
2018-11-05T08:11:09.796Z,9.40
2018-11-05T08:13:38.971Z,9.10
2018-11-05T08:16:06.941Z,9.30
2018-11-05T08:18:35.590Z,9.60
2018-11-05T08:21:03.951Z,9.65
2018-11-05T08:23:32.334Z,9.05
2018-11-05T08:26:00.580Z,9.85
2018-11-05T08:28:28.683Z,8.93
2018-11-05T08:30:56.920Z,9.20
2018-11-05T08:33:25.222Z,9.40
2018-11-05T08:35:55.442Z,9.25
2018-11-05T08:38:23.420Z,9.93
2018-11-05T08:40:51.652Z,9.83
2018-11-05T08:43:19.739Z,9.93
2018-11-05T08:45:48.273Z,8.83
2018-11-05T08:48:16.302Z,9.25
2018-11-05T08:50:45.399Z,10.25
2018-11-05T08:53:13.356Z,10.03
2018-11-05T08:55:41.435Z,9.90
2018-11-05T08:58:09.777Z,10.28
2018-11-05T09:00:43.271Z,10.33
2018-11-05T09:03:11.390Z,10.28
2018-11-05T09:05:40.647Z,10.90
2018-11-05T09:08:09.009Z,10.50
2018-11-05T09:10:37.166Z,10.10
2018-11-05T09:13:05.418Z,10.30
2018-11-05T09:15:35.660Z,10.98
2018-11-05T09:18:03.701Z,10.65
2018-11-05T09:20:31.690Z,11.37
2018-11-05T09:23:00.754Z,10.58
2018-11-05T09:25:28.698Z,10.68
2018-11-05T09:27:56.776Z,10.05
2018-11-05T09:30:25.623Z,11.15
2018-11-05T09:32:53.566Z,10.57
2018-11-05T09:35:21.547Z,11.00
2018-11-05T09:37:52.068Z,9.70
2018-11-05T09:40:21.432Z,10.30
2018-11-05T09:42:54.408Z,10.23
2018-11-05T09:45:24.128Z,11.38
2018-11-05T09:47:52.126Z,8.58
2018-11-05T09:50:20.574Z,10.03
2018-11-05T09:52:48.677Z,8.68
2018-11-05T09:55:18.814Z,8.53
2018-11-05T09:57:46.782Z,8.65
2018-11-05T10:00:16.687Z,8.88
2018-11-05T10:02:51.641Z,8.68
2018-11-05T10:05:20.903Z,8.30
2018-11-05T10:07:48.899Z,8.80
2018-11-05T10:10:19.287Z,8.55
2018-11-05T10:12:47.495Z,8.13
2018-11-05T10:15:16.851Z,8.08
2018-11-05T10:17:44.797Z,7.42
2018-11-05T10:20:14.730Z,7.00
2018-11-05T10:22:43.699Z,8.10
2018-11-05T10:25:13.468Z,7.30
2018-11-05T10:27:41.460Z,9.13
2018-11-05T10:30:11.771Z,8.60
2018-11-05T10:32:40.715Z,8.33
2018-11-05T10:35:08.720Z,7.50
2018-11-05T10:37:36.742Z,8.95
2018-11-05T10:40:10.096Z,8.27
2018-11-05T10:42:38.235Z,8.90
2018-11-05T10:45:06.636Z,8.75
2018-11-05T10:47:34.852Z,8.23
2018-11-05T10:50:02.974Z,8.40
2018-11-05T10:52:31.437Z,7.30
2018-11-05T10:55:02.146Z,5.90
2018-11-05T10:57:30.253Z,5.20
2018-11-05T10:59:58.193Z,5.37
2018-11-05T11:02:39.976Z,3.87
2018-11-05T11:05:10.011Z,3.57
2018-11-05T11:07:37.957Z,3.50
2018-11-05T11:10:05.960Z,3.85
2018-11-05T11:12:33.901Z,4.00
2018-11-05T11:15:01.883Z,3.85
2018-11-05T11:17:29.866Z,4.03
2018-11-05T11:19:57.823Z,3.70
2018-11-05T11:22:25.812Z,3.60
2018-11-05T11:24:53.815Z,4.00
2018-11-05T11:27:21.819Z,3.85
2018-11-05T11:29:49.817Z,3.50
2018-11-05T11:32:17.863Z,3.50
2018-11-05T11:34:45.889Z,3.50
2018-11-05T11:37:13.962Z,4.08
2018-11-05T11:39:41.853Z,4.15
2018-11-05T11:42:09.846Z,3.77
2018-11-05T11:44:37.881Z,3.35
2018-11-05T11:47:05.830Z,3.70
2018-11-05T11:49:33.827Z,3.60
2018-11-05T11:52:01.888Z,3.70
2018-11-05T11:54:29.933Z,3.83
2018-11-05T11:56:58.224Z,3.22
2018-11-05T11:59:26.304Z,3.50
2018-11-05T12:01:59.728Z,3.30
2018-11-05T12:04:27.723Z,3.50
2018-11-05T12:06:55.739Z,2.70
2018-11-05T12:09:23.755Z,3.27
2018-11-05T12:11:51.745Z,2.90
2018-11-05T12:14:19.747Z,3.20
2018-11-05T12:16:47.743Z,3.27
2018-11-05T12:19:15.735Z,3.40
2018-11-05T12:21:43.801Z,3.62
2018-11-05T12:24:11.795Z,3.30
2018-11-05T12:26:39.962Z,3.90
2018-11-05T12:29:07.906Z,4.00
2018-11-05T12:31:35.912Z,4.00
2018-11-05T12:34:04.043Z,3.90
2018-11-05T12:36:32.080Z,4.40
2018-11-05T12:39:00.060Z,3.87
2018-11-05T12:41:28.081Z,3.80
2018-11-05T12:43:56.062Z,3.70
2018-11-05T12:46:24.071Z,3.77
2018-11-05T12:48:52.067Z,4.07
2018-11-05T12:51:20.055Z,3.80
2018-11-05T12:53:48.045Z,3.57
2018-11-05T12:56:16.059Z,3.63
2018-11-05T12:58:44.035Z,3.70
2018-11-05T13:01:12.039Z,3.70
2018-11-05T13:03:40.476Z,4.43
2018-11-05T13:06:08.514Z,3.87
2018-11-05T13:08:36.490Z,3.80
2018-11-05T13:11:04.661Z,4.03
2018-11-05T13:13:32.650Z,3.50
2018-11-05T13:16:00.648Z,3.73
2018-11-05T13:18:28.627Z,3.70
2018-11-05T13:20:56.650Z,4.37
2018-11-05T13:23:30.011Z,4.00
2018-11-05T13:25:58.030Z,4.83
2018-11-05T13:28:26.146Z,4.43
2018-11-05T13:30:54.051Z,4.77
2018-11-05T13:33:22.094Z,3.97
2018-11-05T13:35:50.091Z,3.57
2018-11-05T13:38:18.619Z,4.60
2018-11-05T13:40:46.166Z,4.53
2018-11-05T13:43:14.142Z,4.37
2018-11-05T13:45:42.347Z,4.70
2018-11-05T13:48:10.382Z,4.53
2018-11-05T13:50:38.160Z,5.07
2018-11-05T13:53:06.287Z,5.63
2018-11-05T13:55:34.267Z,4.87
2018-11-05T13:58:02.250Z,4.20
2018-11-05T14:00:30.227Z,4.40
2018-11-05T14:02:58.209Z,4.03
2018-11-05T14:05:26.207Z,4.40
2018-11-05T14:07:54.202Z,4.23
2018-11-05T14:10:22.194Z,4.53
2018-11-05T14:12:50.645Z,3.50
2018-11-05T14:15:18.690Z,4.73
2018-11-05T14:17:46.861Z,4.17
2018-11-05T14:20:15.934Z,4.00
2018-11-05T14:22:43.977Z,3.70
2018-11-05T14:25:15.300Z,3.63
2018-11-05T14:27:44.505Z,4.17
2018-11-05T14:30:13.047Z,4.57
2018-11-05T14:32:42.440Z,5.10
2018-11-05T14:35:10.487Z,5.40
2018-11-05T14:37:38.610Z,5.03
2018-11-05T14:40:07.031Z,5.00
2018-11-05T14:42:35.177Z,4.97
2018-11-05T14:45:03.139Z,5.27
2018-11-05T14:47:31.145Z,4.50
2018-11-05T14:49:59.130Z,4.80
2018-11-05T14:52:27.144Z,4.60
2018-11-05T14:54:55.192Z,4.87
2018-11-05T14:57:23.197Z,5.43
2018-11-05T14:59:51.122Z,4.73
2018-11-05T15:02:24.712Z,5.93
2018-11-05T15:04:52.699Z,5.20
2018-11-05T15:07:20.703Z,5.03
2018-11-05T15:09:48.709Z,4.83
2018-11-05T15:12:16.707Z,6.40
2018-11-05T15:14:44.750Z,5.17
2018-11-05T15:17:12.738Z,5.97
2018-11-05T15:19:41.220Z,6.17
2018-11-05T15:22:08.751Z,7.33
2018-11-05T15:24:36.747Z,7.47
2018-11-05T15:27:05.140Z,7.93
2018-11-05T15:29:33.098Z,8.00
2018-11-05T15:32:01.120Z,7.83
2018-11-05T15:34:29.115Z,6.50
2018-11-05T15:37:00.951Z,8.37
2018-11-05T15:39:28.974Z,8.30
2018-11-05T15:41:56.972Z,8.60
2018-11-05T15:44:25.043Z,8.20
2018-11-05T15:46:53.111Z,8.03
2018-11-05T15:49:21.119Z,8.07
2018-11-05T15:51:49.373Z,7.83
2018-11-05T15:54:17.277Z,8.60
2018-11-05T15:56:45.156Z,8.67
2018-11-05T15:59:13.159Z,9.83
2018-11-05T16:01:41.182Z,9.10
2018-11-05T16:04:09.229Z,8.50
2018-11-05T16:06:37.271Z,7.90
2018-11-05T16:09:07.079Z,9.13
2018-11-05T16:11:35.198Z,7.83
2018-11-05T16:14:03.387Z,10.60
2018-11-05T16:16:31.407Z,9.53
2018-11-05T16:18:59.424Z,9.37
2018-11-05T16:21:27.494Z,8.67
2018-11-05T16:23:55.724Z,9.17
2018-11-05T16:26:23.858Z,8.70
2018-11-05T16:28:51.852Z,9.40
2018-11-05T16:31:19.998Z,9.07
2018-11-05T16:33:48.412Z,9.67
2018-11-05T16:36:16.443Z,8.10
2018-11-05T16:38:44.467Z,10.00
2018-11-05T16:41:12.476Z,8.80
2018-11-05T16:43:40.577Z,9.83
2018-11-05T16:46:08.707Z,9.60
2018-11-05T16:48:36.724Z,9.33
2018-11-05T16:51:05.772Z,9.60
2018-11-05T16:53:33.838Z,8.67
2018-11-05T16:56:01.835Z,8.40
2018-11-05T16:58:29.854Z,8.50
2018-11-05T17:00:57.997Z,7.80
2018-11-05T17:03:25.859Z,8.17
2018-11-05T17:05:53.851Z,8.50
2018-11-05T17:08:21.874Z,7.83
2018-11-05T17:10:49.870Z,8.70
2018-11-05T17:13:18.087Z,8.67
2018-11-05T17:15:46.045Z,8.43
2018-11-05T17:18:14.029Z,6.70
2018-11-05T17:20:42.022Z,8.00
2018-11-05T17:23:10.246Z,7.77
2018-11-05T17:25:38.467Z,6.93
2018-11-05T17:28:06.474Z,7.00
2018-11-05T17:30:34.483Z,7.20
2018-11-05T17:33:02.613Z,7.17
2018-11-05T17:35:30.674Z,7.10
2018-11-05T17:37:58.660Z,5.97
2018-11-05T17:40:26.671Z,6.03
2018-11-05T17:42:54.666Z,6.20
2018-11-05T17:45:22.712Z,7.20
2018-11-05T17:47:50.790Z,6.80
2018-11-05T17:50:20.040Z,7.13
2018-11-05T17:52:48.050Z,7.77
2018-11-05T17:55:16.167Z,5.90
2018-11-05T17:57:45.227Z,6.50
2018-11-05T18:00:14.657Z,6.60
2018-11-05T18:02:42.803Z,7.50
2018-11-05T18:05:10.864Z,7.67
2018-11-05T18:07:38.901Z,7.90
2018-11-05T18:10:07.156Z,7.53
2018-11-05T18:12:35.203Z,7.17
2018-11-05T18:15:03.550Z,7.13
2018-11-05T18:17:31.584Z,8.10
2018-11-05T18:19:59.585Z,7.53
2018-11-05T18:22:28.627Z,7.47
2018-11-05T18:24:57.174Z,7.70
2018-11-05T18:27:25.216Z,8.93
2018-11-05T18:29:53.257Z,12.70
2018-11-05T18:32:21.795Z,12.40
2018-11-05T18:34:51.804Z,27.87
2018-11-05T18:37:19.974Z,20.87
2018-11-05T18:39:48.250Z,24.50
2018-11-05T18:42:16.325Z,22.30
2018-11-05T18:44:44.394Z,21.50
2018-11-05T18:47:12.463Z,20.43
2018-11-05T18:49:40.482Z,21.50
2018-11-05T18:52:09.415Z,19.00
2018-11-05T18:54:37.883Z,19.83
2018-11-05T18:57:06.040Z,20.80
2018-11-05T18:59:34.010Z,19.10
2018-11-05T19:02:02.275Z,16.00
2018-11-05T19:04:30.279Z,14.70
2018-11-05T19:06:58.291Z,14.10
2018-11-05T19:09:26.664Z,13.60
2018-11-05T19:11:54.649Z,13.90
2018-11-05T19:14:22.671Z,13.97
2018-11-05T19:16:50.820Z,13.57
2018-11-05T19:19:18.878Z,12.40
2018-11-05T19:21:46.985Z,13.40
2018-11-05T19:24:15.123Z,11.83
2018-11-05T19:26:43.016Z,12.97
2018-11-05T19:29:11.043Z,13.47
2018-11-05T19:31:39.663Z,13.70
2018-11-05T19:34:08.084Z,12.70
2018-11-05T19:36:36.084Z,13.40
2018-11-05T19:39:06.585Z,13.20
2018-11-05T19:41:34.743Z,13.80
2018-11-05T19:44:02.735Z,12.40
2018-11-05T19:46:30.758Z,14.80
2018-11-05T19:48:58.776Z,13.30
2018-11-05T19:51:26.792Z,12.23
2018-11-05T19:53:54.898Z,15.23
2018-11-05T19:56:22.949Z,14.90
2018-11-05T19:58:50.894Z,14.53
2018-11-05T20:01:18.920Z,13.87
2018-11-05T20:03:46.966Z,12.10
2018-11-05T20:06:14.978Z,14.03
2018-11-05T20:08:43.009Z,12.20
2018-11-05T20:11:10.994Z,12.70
2018-11-05T20:13:39.002Z,12.27
2018-11-05T20:16:07.009Z,12.30
2018-11-05T20:18:35.044Z,13.77
2018-11-05T20:21:02.961Z,14.90
2018-11-05T20:23:30.941Z,15.37
2018-11-05T20:25:58.925Z,14.73
2018-11-05T20:28:26.985Z,13.40
2018-11-05T20:30:54.919Z,13.07
2018-11-05T20:33:23.132Z,13.87
2018-11-05T20:35:50.834Z,12.53
2018-11-05T20:38:18.798Z,11.03
2018-11-05T20:40:46.781Z,12.83
2018-11-05T20:43:14.797Z,8.37
2018-11-05T20:45:42.774Z,6.43
2018-11-05T20:48:10.749Z,8.00
2018-11-05T20:50:38.730Z,6.33
2018-11-05T20:53:06.685Z,6.70
2018-11-05T20:55:34.688Z,5.70
2018-11-05T20:58:02.634Z,4.83
2018-11-05T21:00:30.626Z,4.87
2018-11-05T21:02:58.623Z,4.73
2018-11-05T21:05:26.590Z,4.20
2018-11-05T21:07:54.545Z,4.40
2018-11-05T21:10:22.522Z,2.80
2018-11-05T21:12:50.489Z,3.10
2018-11-05T21:15:19.785Z,2.50
2018-11-05T21:17:48.103Z,2.30
2018-11-05T21:20:16.243Z,3.17
2018-11-05T21:22:44.751Z,2.40
2018-11-05T21:25:12.673Z,2.37
2018-11-05T21:27:41.457Z,2.20
2018-11-05T21:30:10.365Z,2.10
2018-11-05T21:32:38.518Z,1.90
2018-11-05T21:35:07.219Z,2.20
2018-11-05T21:37:35.299Z,2.00
2018-11-05T21:40:03.290Z,2.00
2018-11-05T21:42:31.301Z,2.53
2018-11-05T21:44:59.290Z,1.87
2018-11-05T21:47:27.282Z,1.43
2018-11-05T21:49:55.207Z,1.97
2018-11-05T21:52:23.160Z,1.50
2018-11-05T21:54:51.126Z,1.67
2018-11-05T21:57:19.125Z,2.60
2018-11-05T21:59:47.075Z,1.20
2018-11-05T22:02:15.038Z,2.13
2018-11-05T22:04:43.007Z,1.80
2018-11-05T22:07:10.989Z,1.57
2018-11-05T22:09:39.095Z,1.40
2018-11-05T22:12:07.080Z,1.87
2018-11-05T22:14:35.058Z,1.87
2018-11-05T22:17:03.043Z,2.03
2018-11-05T22:19:31.015Z,2.13
2018-11-05T22:21:58.985Z,2.10
2018-11-05T22:24:26.966Z,1.80
2018-11-05T22:26:54.947Z,1.90
2018-11-05T22:29:22.922Z,2.03
2018-11-05T22:31:50.903Z,2.80
2018-11-05T22:34:18.870Z,1.93
2018-11-05T22:36:46.850Z,2.67
2018-11-05T22:39:14.822Z,2.17
2018-11-05T22:41:42.806Z,2.40
2018-11-05T22:44:10.789Z,2.80
2018-11-05T22:46:38.774Z,2.33
2018-11-05T22:49:06.769Z,2.30
2018-11-05T22:51:34.742Z,2.07
2018-11-05T22:54:02.730Z,2.70
2018-11-05T22:56:30.697Z,2.50
2018-11-05T22:58:58.677Z,2.20
2018-11-05T23:01:32.243Z,2.57
2018-11-05T23:04:02.050Z,2.60
2018-11-05T23:06:30.702Z,2.50
2018-11-05T23:08:58.690Z,2.53
2018-11-05T23:11:26.673Z,2.20
2018-11-05T23:13:54.673Z,2.20
2018-11-05T23:16:22.777Z,2.70
2018-11-05T23:18:50.749Z,3.73
2018-11-05T23:21:18.729Z,2.30
2018-11-05T23:23:46.702Z,2.00
2018-11-05T23:26:14.681Z,2.20
2018-11-05T23:28:42.642Z,2.90
2018-11-05T23:31:10.629Z,2.27
2018-11-05T23:33:38.598Z,2.60
2018-11-05T23:36:06.607Z,2.33
2018-11-05T23:38:34.570Z,2.30
2018-11-05T23:41:02.542Z,1.90
2018-11-05T23:43:30.506Z,2.37
2018-11-05T23:45:58.487Z,2.53
2018-11-05T23:48:26.460Z,2.37
2018-11-05T23:50:54.445Z,2.40
2018-11-05T23:53:22.421Z,1.83
2018-11-05T23:55:50.402Z,2.20
2018-11-05T23:58:18.384Z,2.80
